Pagrindinis puslapis
METAR-TAF:

METAR-TAF

Oro uostai :

Sionas, Šveicarija

platuma: 46-13N, ilguma: 007-20E, Aukštis: 482 m

Dabartinis oras

Ataskaita buvo paskelbta 10 minutes, ne 23:20 UTC
Vėjas 4 kt iš Rytų
Temperatūra 10°C
Drėgmė 50%
Slėgis 1028 hPa
Matomumas 10 km arba daugiau
nėra debesų žemiau 1500 m ir nėra kamuolinių lietaus debesų

METAR: LSGS 072320Z AUTO 09004KT CAVOK 10/M00 Q1028

Laikas: 01:30 (23:30 UTC)

Prognozė

Ataskaita buvo paskelbta 9 valandos ir 5 minutes, ne 14:25 UTC
Prognozė galioja nuo 07 metu 15 UTC su 07 metu 24 UTC
Vėjas 8 kt iš Vakarų/Pietvakarių
Matomumas 10 km arba daugiau
nėra debesų žemiau 1500 m ir nėra kamuolinių lietaus debesų

TAF: LSGS 071425Z 0715/0724 25008KT CAVOK

Orai ataskaitas ir orų prognozės (METAR, TAF).

turimą stotys yra geltonos ir raudonos taškus žemėlapyje.

Perkelti pele per norėdami pamatyti stoties vardą.

Tada spustelėkite, norėdami matyti oro stebėjimo ir prognozės.

Norėdami pakeisti žemėlapį: spustelėkite ant žalios mygtukų su juodo kryžiaus žemyn,; žalią mygtuką su brūkšneliu, jei norite nutolinti; arba žalių rodyklių gretimoms žemėlapius.


METAR-TAF: